Country
Station

 

Weather  for  Pullman/Moscow, Pullman/Moscow Regional Airport  -  United States    United States

  
8 °C (46 °F)
    
 
 

Current METAR for Pullman/Moscow, Pullman/Moscow Regional Airport is :

KPUW 021153Z AUTO 00000KT 10SM CLR 08/06 A3019 RMK AO2 SLP225 T00780056 10100 20067 51009

 

This is a report for Pullman/Moscow, Pullman/Moscow Regional Airport - United States.
 
The report was made 38 minutes ago, at 11:53 UTC .
The wind was calm.
 
The temperature was 8 °C (46 °F), with a dew-point at 6 °C (43 °F).
The atmospheric pressure was 1022 hPa (30.19 inHg).
The relative humidity was 87.2%.
 
The sky was clear.
 
The overall visibility was 16.1 kilometers (10.0 miles).
 

 
 
 
 

Country :   A   B   C   D   E   F   G   H   I   J   K   L   M   N   O   P   Q   R   S   T   U   V   W   Y   Z

 

Site Info  |  Disclaimer  |  Credits  |  Privacy
Contact us  |  Add to favorites
© 2013-2020 METARs - All rights reserved